sensor_id;sensor_type;location;lat;lon;timestamp;pressure;altitude;pressure_sealevel;temperature;humidity
39177;BME280;24904;52.208;21.192;2023-03-14T00:04:41;98959.47;;;10.12;65.58
39177;BME280;24904;52.208;21.192;2023-03-14T00:09:44;98960.33;;;10.04;65.56
39177;BME280;24904;52.208;21.192;2023-03-14T00:14:47;98953.36;;;9.95;65.56
39177;BME280;24904;52.208;21.192;2023-03-14T00:19:50;98960.56;;;9.85;65.66
39177;BME280;24904;52.208;21.192;2023-03-14T00:24:55;98942.39;;;9.77;65.68
39177;BME280;24904;52.208;21.192;2023-03-14T00:29:58;98938.08;;;9.69;65.80
39177;BME280;24904;52.208;21.192;2023-03-14T00:35:02;98925.30;;;9.61;65.78
39177;BME280;24904;52.208;21.192;2023-03-14T00:40:07;98918.30;;;9.55;65.60
39177;BME280;24904;52.208;21.192;2023-03-14T00:45:11;98917.32;;;9.51;65.72
39177;BME280;24904;52.208;21.192;2023-03-14T00:50:14;98906.31;;;9.47;65.71
39177;BME280;24904;52.208;21.192;2023-03-14T00:55:17;98891.55;;;9.42;65.62
39177;BME280;24904;52.208;21.192;2023-03-14T01:00:21;98875.16;;;9.38;65.69
39177;BME280;24904;52.208;21.192;2023-03-14T01:05:24;98867.44;;;9.36;65.35
39177;BME280;24904;52.208;21.192;2023-03-14T01:10:27;98871.08;;;9.31;65.45
39177;BME280;24904;52.208;21.192;2023-03-14T01:15:32;98858.97;;;9.26;65.04
39177;BME280;24904;52.208;21.192;2023-03-14T01:20:37;98854.84;;;9.24;65.38
39177;BME280;24904;52.208;21.192;2023-03-14T01:25:42;98841.33;;;9.23;64.97
39177;BME280;24904;52.208;21.192;2023-03-14T01:30:45;98847.91;;;9.20;65.07
39177;BME280;24904;52.208;21.192;2023-03-14T01:35:51;98845.67;;;9.17;64.92
39177;BME280;24904;52.208;21.192;2023-03-14T01:40:54;98843.96;;;9.15;64.92
39177;BME280;24904;52.208;21.192;2023-03-14T01:46:28;98843.97;;;9.15;64.65
39177;BME280;24904;52.208;21.192;2023-03-14T01:51:36;98849.39;;;9.10;64.67
39177;BME280;24904;52.208;21.192;2023-03-14T01:56:42;98848.07;;;9.09;64.31
39177;BME280;24904;52.208;21.192;2023-03-14T02:01:48;98849.66;;;9.06;64.48
39177;BME280;24904;52.208;21.192;2023-03-14T02:06:58;98851.95;;;9.03;64.39
39177;BME280;24904;52.208;21.192;2023-03-14T02:12:08;98837.35;;;8.98;64.07
39177;BME280;24904;52.208;21.192;2023-03-14T02:17:21;98827.21;;;8.95;64.11
39177;BME280;24904;52.208;21.192;2023-03-14T02:22:42;98819.98;;;8.91;64.17
39177;BME280;24904;52.208;21.192;2023-03-14T02:27:47;98813.74;;;8.86;64.13
39177;BME280;24904;52.208;21.192;2023-03-14T02:36:26;98801.58;;;8.82;63.83
39177;BME280;24904;52.208;21.192;2023-03-14T02:41:32;98785.16;;;8.71;63.92
39177;BME280;24904;52.208;21.192;2023-03-14T02:46:40;98772.20;;;8.59;63.97
39177;BME280;24904;52.208;21.192;2023-03-14T02:51:46;98762.23;;;8.52;64.09
39177;BME280;24904;52.208;21.192;2023-03-14T02:56:52;98763.52;;;8.47;63.96
39177;BME280;24904;52.208;21.192;2023-03-14T03:01:57;98771.54;;;8.36;63.91
39177;BME280;24904;52.208;21.192;2023-03-14T03:07:04;98771.02;;;8.28;64.06
39177;BME280;24904;52.208;21.192;2023-03-14T03:12:09;98763.50;;;8.17;64.03
39177;BME280;24904;52.208;21.192;2023-03-14T03:17:14;98758.68;;;8.10;64.19
39177;BME280;24904;52.208;21.192;2023-03-14T03:22:19;98762.15;;;8.04;64.20
39177;BME280;24904;52.208;21.192;2023-03-14T03:27:24;98765.05;;;8.00;64.12
39177;BME280;24904;52.208;21.192;2023-03-14T03:32:30;98763.22;;;7.94;64.01
39177;BME280;24904;52.208;21.192;2023-03-14T03:37:36;98750.05;;;7.88;64.09
39177;BME280;24904;52.208;21.192;2023-03-14T03:42:42;98738.35;;;7.83;64.08
39177;BME280;24904;52.208;21.192;2023-03-14T03:47:48;98745.54;;;7.82;64.14
39177;BME280;24904;52.208;21.192;2023-03-14T03:52:53;98749.23;;;7.79;64.02
39177;BME280;24904;52.208;21.192;2023-03-14T03:57:58;98739.41;;;7.72;63.96
39177;BME280;24904;52.208;21.192;2023-03-14T04:03:04;98726.16;;;7.68;64.19
39177;BME280;24904;52.208;21.192;2023-03-14T04:08:09;98734.52;;;7.64;64.18
39177;BME280;24904;52.208;21.192;2023-03-14T04:13:14;98736.26;;;7.61;64.28
39177;BME280;24904;52.208;21.192;2023-03-14T04:18:25;98742.27;;;7.62;64.21
39177;BME280;24904;52.208;21.192;2023-03-14T04:23:31;98741.23;;;7.59;64.31
39177;BME280;24904;52.208;21.192;2023-03-14T04:28:37;98749.90;;;7.59;64.19
39177;BME280;24904;52.208;21.192;2023-03-14T04:33:43;98742.80;;;7.60;64.24
39177;BME280;24904;52.208;21.192;2023-03-14T04:38:50;98739.52;;;7.58;64.07
39177;BME280;24904;52.208;21.192;2023-03-14T04:43:57;98750.17;;;7.53;64.12
39177;BME280;24904;52.208;21.192;2023-03-14T04:49:03;98739.87;;;7.53;64.35
39177;BME280;24904;52.208;21.192;2023-03-14T04:54:08;98730.42;;;7.53;64.23
39177;BME280;24904;52.208;21.192;2023-03-14T04:59:14;98715.37;;;7.53;64.22
39177;BME280;24904;52.208;21.192;2023-03-14T05:04:20;98699.45;;;7.53;64.15
39177;BME280;24904;52.208;21.192;2023-03-14T05:09:48;98693.98;;;7.52;64.24
39177;BME280;24904;52.208;21.192;2023-03-14T05:15:16;98692.42;;;7.53;64.16
39177;BME280;24904;52.208;21.192;2023-03-14T05:20:57;98686.02;;;7.56;64.16
39177;BME280;24904;52.208;21.192;2023-03-14T05:26:20;98666.34;;;7.57;64.20
39177;BME280;24904;52.208;21.192;2023-03-14T05:31:38;98654.31;;;7.59;64.15
39177;BME280;24904;52.208;21.192;2023-03-14T05:37:03;98668.34;;;7.65;64.12
39177;BME280;24904;52.208;21.192;2023-03-14T05:42:37;98671.59;;;7.70;63.88
39177;BME280;24904;52.208;21.192;2023-03-14T05:48:05;98662.76;;;7.72;63.68
39177;BME280;24904;52.208;21.192;2023-03-14T05:53:37;98650.41;;;7.78;63.70
39177;BME280;24904;52.208;21.192;2023-03-14T05:59:00;98643.33;;;7.86;63.72
39177;BME280;24904;52.208;21.192;2023-03-14T06:04:18;98637.91;;;7.92;63.53
39177;BME280;24904;52.208;21.192;2023-03-14T06:09:27;98623.95;;;8.01;63.41
39177;BME280;24904;52.208;21.192;2023-03-14T06:14:34;98614.35;;;8.12;63.13
39177;BME280;24904;52.208;21.192;2023-03-14T06:19:39;98613.52;;;8.29;62.93
39177;BME280;24904;52.208;21.192;2023-03-14T06:24:45;98604.05;;;8.50;62.90
39177;BME280;24904;52.208;21.192;2023-03-14T06:29:52;98595.75;;;8.69;62.58
39177;BME280;24904;52.208;21.192;2023-03-14T06:34:57;98599.20;;;8.83;62.10
39177;BME280;24904;52.208;21.192;2023-03-14T06:40:06;98597.78;;;8.92;62.06
39177;BME280;24904;52.208;21.192;2023-03-14T06:45:40;98594.59;;;8.98;61.80
39177;BME280;24904;52.208;21.192;2023-03-14T06:50:46;98593.19;;;9.04;61.72
39177;BME280;24904;52.208;21.192;2023-03-14T06:55:52;98595.10;;;9.15;61.46
39177;BME280;24904;52.208;21.192;2023-03-14T07:00:58;98583.14;;;9.28;61.10
39177;BME280;24904;52.208;21.192;2023-03-14T07:06:07;98579.98;;;9.42;61.09
39177;BME280;24904;52.208;21.192;2023-03-14T07:11:12;98575.39;;;9.58;60.95
39177;BME280;24904;52.208;21.192;2023-03-14T07:16:18;98578.57;;;9.75;60.64
39177;BME280;24904;52.208;21.192;2023-03-14T07:21:24;98590.11;;;9.90;60.61
39177;BME280;24904;52.208;21.192;2023-03-14T07:26:29;98573.66;;;10.06;60.24
39177;BME280;24904;52.208;21.192;2023-03-14T07:31:34;98579.67;;;10.17;60.36
39177;BME280;24904;52.208;21.192;2023-03-14T07:36:39;98592.02;;;10.26;59.95
39177;BME280;24904;52.208;21.192;2023-03-14T07:41:45;98597.87;;;10.32;59.83
39177;BME280;24904;52.208;21.192;2023-03-14T07:47:10;98614.20;;;10.39;59.60
39177;BME280;24904;52.208;21.192;2023-03-14T07:52:15;98605.21;;;10.57;59.89
39177;BME280;24904;52.208;21.192;2023-03-14T07:57:20;98594.28;;;10.85;59.62
39177;BME280;24904;52.208;21.192;2023-03-14T08:02:25;98586.84;;;11.17;59.46
39177;BME280;24904;52.208;21.192;2023-03-14T08:07:30;98586.59;;;11.48;59.17
39177;BME280;24904;52.208;21.192;2023-03-14T08:12:35;98584.92;;;11.71;58.76
39177;BME280;24904;52.208;21.192;2023-03-14T08:17:40;98586.96;;;11.93;58.48
39177;BME280;24904;52.208;21.192;2023-03-14T08:22:45;98596.92;;;12.21;58.09
39177;BME280;24904;52.208;21.192;2023-03-14T08:27:51;98597.95;;;12.50;57.33
39177;BME280;24904;52.208;21.192;2023-03-14T08:32:57;98588.57;;;12.68;56.82
39177;BME280;24904;52.208;21.192;2023-03-14T08:38:02;98588.77;;;12.88;56.50
39177;BME280;24904;52.208;21.192;2023-03-14T08:43:08;98591.09;;;13.07;56.05
39177;BME280;24904;52.208;21.192;2023-03-14T08:48:13;98596.60;;;13.21;55.36
39177;BME280;24904;52.208;21.192;2023-03-14T08:53:18;98599.06;;;13.38;55.25
39177;BME280;24904;52.208;21.192;2023-03-14T08:58:24;98597.42;;;13.51;54.75
39177;BME280;24904;52.208;21.192;2023-03-14T09:03:30;98590.71;;;13.59;54.62
39177;BME280;24904;52.208;21.192;2023-03-14T09:08:35;98582.36;;;13.67;54.24
39177;BME280;24904;52.208;21.192;2023-03-14T09:13:41;98578.16;;;13.81;53.70
39177;BME280;24904;52.208;21.192;2023-03-14T09:18:46;98581.51;;;13.90;53.57
39177;BME280;24904;52.208;21.192;2023-03-14T09:23:51;98574.36;;;13.97;53.43
39177;BME280;24904;52.208;21.192;2023-03-14T09:28:56;98569.83;;;14.03;53.18
39177;BME280;24904;52.208;21.192;2023-03-14T09:34:01;98562.64;;;14.13;53.13
39177;BME280;24904;52.208;21.192;2023-03-14T09:39:07;98548.66;;;14.28;52.89
39177;BME280;24904;52.208;21.192;2023-03-14T09:44:15;98535.57;;;14.40;52.69
39177;BME280;24904;52.208;21.192;2023-03-14T09:57:54;98512.84;;;14.89;51.86
39177;BME280;24904;52.208;21.192;2023-03-14T10:03:04;98504.45;;;14.96;51.40
39177;BME280;24904;52.208;21.192;2023-03-14T10:08:17;98490.44;;;15.05;51.46
39177;BME280;24904;52.208;21.192;2023-03-14T10:13:21;98486.95;;;15.22;51.12
39177;BME280;24904;52.208;21.192;2023-03-14T10:18:27;98491.82;;;15.39;51.06
39177;BME280;24904;52.208;21.192;2023-03-14T10:23:32;98493.98;;;15.43;50.28
39177;BME280;24904;52.208;21.192;2023-03-14T10:28:41;98496.22;;;15.40;49.52
39177;BME280;24904;52.208;21.192;2023-03-14T10:33:58;98490.78;;;15.31;49.16
39177;BME280;24904;52.208;21.192;2023-03-14T10:39:23;98482.45;;;15.28;49.67
39177;BME280;24904;52.208;21.192;2023-03-14T10:44:27;98476.32;;;15.31;49.50
39177;BME280;24904;52.208;21.192;2023-03-14T10:49:33;98481.20;;;15.32;49.16
39177;BME280;24904;52.208;21.192;2023-03-14T10:54:36;98474.36;;;15.35;49.36
39177;BME280;24904;52.208;21.192;2023-03-14T10:59:41;98474.75;;;15.35;49.45
39177;BME280;24904;52.208;21.192;2023-03-14T11:04:55;98484.85;;;15.30;49.55
39177;BME280;24904;52.208;21.192;2023-03-14T11:10:11;98479.73;;;15.19;49.57
39177;BME280;24904;52.208;21.192;2023-03-14T11:15:21;98485.43;;;15.06;49.49
39177;BME280;24904;52.208;21.192;2023-03-14T11:20:36;98485.33;;;14.96;49.68
39177;BME280;24904;52.208;21.192;2023-03-14T11:25:45;98489.43;;;14.87;49.69
39177;BME280;24904;52.208;21.192;2023-03-14T11:30:53;98493.81;;;14.80;49.70
39177;BME280;24904;52.208;21.192;2023-03-14T11:35:59;98496.69;;;14.79;49.83
39177;BME280;24904;52.208;21.192;2023-03-14T11:41:12;98484.38;;;14.85;50.08
39177;BME280;24904;52.208;21.192;2023-03-14T11:46:20;98477.64;;;14.88;49.96
39177;BME280;24904;52.208;21.192;2023-03-14T11:51:28;98467.10;;;14.87;49.92
39177;BME280;24904;52.208;21.192;2023-03-14T11:56:36;98457.54;;;14.88;50.03
39177;BME280;24904;52.208;21.192;2023-03-14T12:01:51;98469.50;;;14.86;50.07
39177;BME280;24904;52.208;21.192;2023-03-14T12:06:56;98472.46;;;14.79;49.71
39177;BME280;24904;52.208;21.192;2023-03-14T12:12:06;98478.41;;;14.69;49.74
39177;BME280;24904;52.208;21.192;2023-03-14T12:17:21;98482.20;;;14.60;49.91
39177;BME280;24904;52.208;21.192;2023-03-14T12:22:28;98478.02;;;14.58;50.15
39177;BME280;24904;52.208;21.192;2023-03-14T12:38:51;98476.67;;;14.75;50.41
39177;BME280;24904;52.208;21.192;2023-03-14T12:49:31;98483.56;;;14.77;50.34
39177;BME280;24904;52.208;21.192;2023-03-14T12:54:40;98476.77;;;14.69;50.51
39177;BME280;24904;52.208;21.192;2023-03-14T12:59:52;98476.80;;;14.66;50.77
39177;BME280;24904;52.208;21.192;2023-03-14T13:05:09;98484.47;;;14.63;50.84
39177;BME280;24904;52.208;21.192;2023-03-14T13:10:22;98491.01;;;14.54;50.83
39177;BME280;24904;52.208;21.192;2023-03-14T13:15:31;98499.02;;;14.39;50.54
39177;BME280;24904;52.208;21.192;2023-03-14T13:20:37;98507.69;;;14.22;50.97
39177;BME280;24904;52.208;21.192;2023-03-14T13:25:43;98519.52;;;14.06;52.31
39177;BME280;24904;52.208;21.192;2023-03-14T13:30:58;98530.45;;;13.82;54.32
39177;BME280;24904;52.208;21.192;2023-03-14T13:36:02;98534.73;;;13.61;55.49
39177;BME280;24904;52.208;21.192;2023-03-14T13:41:07;98534.05;;;13.34;56.59
39177;BME280;24904;52.208;21.192;2023-03-14T13:46:15;98539.09;;;13.11;57.41
39177;BME280;24904;52.208;21.192;2023-03-14T13:51:20;98539.24;;;12.97;58.11
39177;BME280;24904;52.208;21.192;2023-03-14T13:56:25;98538.77;;;12.86;58.91
39177;BME280;24904;52.208;21.192;2023-03-14T14:01:30;98539.42;;;12.78;59.64
39177;BME280;24904;52.208;21.192;2023-03-14T14:06:36;98543.80;;;12.68;60.60
39177;BME280;24904;52.208;21.192;2023-03-14T14:11:43;98544.23;;;12.55;61.51
39177;BME280;24904;52.208;21.192;2023-03-14T14:16:48;98542.27;;;12.43;62.10
39177;BME280;24904;52.208;21.192;2023-03-14T14:21:52;98532.67;;;12.37;62.37
39177;BME280;24904;52.208;21.192;2023-03-14T14:27:00;98530.79;;;12.31;62.84
39177;BME280;24904;52.208;21.192;2023-03-14T14:32:12;98531.54;;;12.23;63.53
39177;BME280;24904;52.208;21.192;2023-03-14T14:37:20;98516.23;;;12.12;64.06
39177;BME280;24904;52.208;21.192;2023-03-14T14:42:26;98511.77;;;12.02;64.80
39177;BME280;24904;52.208;21.192;2023-03-14T14:47:30;98509.16;;;11.93;65.66
39177;BME280;24904;52.208;21.192;2023-03-14T14:52:39;98501.23;;;11.83;65.88
39177;BME280;24904;52.208;21.192;2023-03-14T14:57:49;98498.45;;;11.77;66.48
39177;BME280;24904;52.208;21.192;2023-03-14T15:02:55;98489.58;;;11.70;67.29
39177;BME280;24904;52.208;21.192;2023-03-14T15:08:01;98479.92;;;11.66;67.60
39177;BME280;24904;52.208;21.192;2023-03-14T15:13:04;98491.20;;;11.64;67.50
39177;BME280;24904;52.208;21.192;2023-03-14T15:18:13;98498.70;;;11.63;67.54
39177;BME280;24904;52.208;21.192;2023-03-14T15:23:19;98508.13;;;11.59;67.72
39177;BME280;24904;52.208;21.192;2023-03-14T15:28:24;98548.95;;;11.57;67.86
39177;BME280;24904;52.208;21.192;2023-03-14T15:33:27;98551.29;;;11.53;67.98
39177;BME280;24904;52.208;21.192;2023-03-14T15:38:31;98539.73;;;11.47;68.09
39177;BME280;24904;52.208;21.192;2023-03-14T15:43:34;98528.12;;;11.44;68.27
39177;BME280;24904;52.208;21.192;2023-03-14T15:48:37;98526.02;;;11.43;68.40
39177;BME280;24904;52.208;21.192;2023-03-14T15:53:41;98524.11;;;11.44;68.35
39177;BME280;24904;52.208;21.192;2023-03-14T15:58:45;98527.11;;;11.43;68.26
39177;BME280;24904;52.208;21.192;2023-03-14T16:03:49;98529.77;;;11.40;68.49
39177;BME280;24904;52.208;21.192;2023-03-14T16:08:54;98535.95;;;11.37;68.36
39177;BME280;24904;52.208;21.192;2023-03-14T16:13:57;98555.12;;;11.32;68.46
39177;BME280;24904;52.208;21.192;2023-03-14T16:19:00;98559.09;;;11.30;68.51
39177;BME280;24904;52.208;21.192;2023-03-14T16:24:05;98550.89;;;11.29;68.29
39177;BME280;24904;52.208;21.192;2023-03-14T16:29:08;98549.71;;;11.29;68.36
39177;BME280;24904;52.208;21.192;2023-03-14T16:34:11;98557.52;;;11.27;68.29
39177;BME280;24904;52.208;21.192;2023-03-14T16:39:14;98558.15;;;11.26;68.54
39177;BME280;24904;52.208;21.192;2023-03-14T16:44:18;98558.54;;;11.26;68.43
39177;BME280;24904;52.208;21.192;2023-03-14T16:49:22;98554.11;;;11.25;68.31
39177;BME280;24904;52.208;21.192;2023-03-14T16:54:31;98567.14;;;11.21;68.52
39177;BME280;24904;52.208;21.192;2023-03-14T16:59:36;98579.34;;;11.19;68.53
39177;BME280;24904;52.208;21.192;2023-03-14T17:04:41;98570.60;;;11.17;68.64
39177;BME280;24904;52.208;21.192;2023-03-14T17:09:47;98552.59;;;11.15;68.64
39177;BME280;24904;52.208;21.192;2023-03-14T17:14:51;98547.70;;;11.16;68.78
39177;BME280;24904;52.208;21.192;2023-03-14T17:19:56;98558.86;;;11.18;68.81
39177;BME280;24904;52.208;21.192;2023-03-14T17:25:00;98566.14;;;11.20;68.77
39177;BME280;24904;52.208;21.192;2023-03-14T17:30:05;98565.59;;;11.20;68.67
39177;BME280;24904;52.208;21.192;2023-03-14T17:35:10;98568.63;;;11.17;68.65
39177;BME280;24904;52.208;21.192;2023-03-14T17:50:40;98569.30;;;11.19;68.52
39177;BME280;24904;52.208;21.192;2023-03-14T17:55:45;98566.14;;;11.16;68.59
39177;BME280;24904;52.208;21.192;2023-03-14T18:00:51;98573.86;;;11.14;68.51
39177;BME280;24904;52.208;21.192;2023-03-14T18:05:56;98577.06;;;11.11;68.67
39177;BME280;24904;52.208;21.192;2023-03-14T18:15:01;98585.83;;;11.12;68.59
39177;BME280;24904;52.208;21.192;2023-03-14T18:20:07;98591.98;;;11.10;68.54
39177;BME280;24904;52.208;21.192;2023-03-14T18:25:11;98598.61;;;11.08;68.62
39177;BME280;24904;52.208;21.192;2023-03-14T18:30:15;98589.42;;;11.05;68.48
39177;BME280;24904;52.208;21.192;2023-03-14T18:35:21;98586.20;;;11.06;68.60
39177;BME280;24904;52.208;21.192;2023-03-14T18:40:24;98597.41;;;11.06;68.50
39177;BME280;24904;52.208;21.192;2023-03-14T18:45:27;98604.30;;;11.06;68.47
39177;BME280;24904;52.208;21.192;2023-03-14T18:50:31;98602.80;;;11.03;68.30
39177;BME280;24904;52.208;21.192;2023-03-14T18:55:34;98596.40;;;11.02;68.39
39177;BME280;24904;52.208;21.192;2023-03-14T19:00:37;98595.58;;;11.00;68.38
39177;BME280;24904;52.208;21.192;2023-03-14T19:05:43;98601.11;;;10.97;68.33
39177;BME280;24904;52.208;21.192;2023-03-14T19:10:46;98609.83;;;10.96;68.15
39177;BME280;24904;52.208;21.192;2023-03-14T19:15:50;98616.83;;;10.95;68.12
39177;BME280;24904;52.208;21.192;2023-03-14T19:20:58;98621.25;;;10.94;68.08
39177;BME280;24904;52.208;21.192;2023-03-14T19:26:01;98615.56;;;10.92;68.01
39177;BME280;24904;52.208;21.192;2023-03-14T19:31:05;98614.23;;;10.88;67.90
39177;BME280;24904;52.208;21.192;2023-03-14T19:36:11;98614.19;;;10.86;67.97
39177;BME280;24904;52.208;21.192;2023-03-14T19:41:22;98613.60;;;10.84;68.05
39177;BME280;24904;52.208;21.192;2023-03-14T19:46:26;98614.63;;;10.83;67.93
39177;BME280;24904;52.208;21.192;2023-03-14T19:51:30;98613.21;;;10.83;67.87
39177;BME280;24904;52.208;21.192;2023-03-14T19:56:36;98617.05;;;10.79;67.85
39177;BME280;24904;52.208;21.192;2023-03-14T20:01:40;98618.47;;;10.75;67.72
39177;BME280;24904;52.208;21.192;2023-03-14T20:06:43;98616.81;;;10.71;67.98
39177;BME280;24904;52.208;21.192;2023-03-14T20:11:46;98619.29;;;10.67;67.85
39177;BME280;24904;52.208;21.192;2023-03-14T20:16:49;98625.61;;;10.65;67.97
39177;BME280;24904;52.208;21.192;2023-03-14T20:21:52;98625.69;;;10.61;67.92
39177;BME280;24904;52.208;21.192;2023-03-14T20:26:55;98627.59;;;10.55;68.01
39177;BME280;24904;52.208;21.192;2023-03-14T20:31:58;98626.65;;;10.50;68.18
39177;BME280;24904;52.208;21.192;2023-03-14T20:37:01;98627.90;;;10.46;68.08
39177;BME280;24904;52.208;21.192;2023-03-14T20:42:05;98638.39;;;10.43;68.16
39177;BME280;24904;52.208;21.192;2023-03-14T20:47:08;98640.92;;;10.40;68.29
39177;BME280;24904;52.208;21.192;2023-03-14T20:52:11;98636.51;;;10.32;68.31
39177;BME280;24904;52.208;21.192;2023-03-14T20:57:15;98634.18;;;10.25;68.20
39177;BME280;24904;52.208;21.192;2023-03-14T21:02:18;98635.77;;;10.18;68.51
39177;BME280;24904;52.208;21.192;2023-03-14T21:07:21;98642.27;;;10.12;68.74
39177;BME280;24904;52.208;21.192;2023-03-14T21:12:24;98643.76;;;10.07;68.65
39177;BME280;24904;52.208;21.192;2023-03-14T21:17:28;98641.09;;;10.02;68.76
39177;BME280;24904;52.208;21.192;2023-03-14T21:22:31;98638.89;;;9.96;68.97
39177;BME280;24904;52.208;21.192;2023-03-14T21:27:34;98643.46;;;9.94;68.98
39177;BME280;24904;52.208;21.192;2023-03-14T21:32:39;98646.21;;;9.89;69.05
39177;BME280;24904;52.208;21.192;2023-03-14T21:37:42;98642.34;;;9.86;69.03
39177;BME280;24904;52.208;21.192;2023-03-14T21:42:46;98647.03;;;9.80;69.20
39177;BME280;24904;52.208;21.192;2023-03-14T21:47:49;98642.34;;;9.74;69.41
39177;BME280;24904;52.208;21.192;2023-03-14T21:52:52;98645.46;;;9.68;69.44
39177;BME280;24904;52.208;21.192;2023-03-14T21:58:00;98648.83;;;9.63;69.65
39177;BME280;24904;52.208;21.192;2023-03-14T22:03:04;98654.69;;;9.58;69.58
39177;BME280;24904;52.208;21.192;2023-03-14T22:08:07;98654.47;;;9.55;69.70
39177;BME280;24904;52.208;21.192;2023-03-14T22:13:10;98659.49;;;9.54;69.93
39177;BME280;24904;52.208;21.192;2023-03-14T22:18:13;98665.09;;;9.51;70.20
39177;BME280;24904;52.208;21.192;2023-03-14T22:23:17;98659.21;;;9.52;70.23
39177;BME280;24904;52.208;21.192;2023-03-14T22:28:20;98662.33;;;9.53;70.32
39177;BME280;24904;52.208;21.192;2023-03-14T22:33:23;98662.45;;;9.55;70.48
39177;BME280;24904;52.208;21.192;2023-03-14T22:38:26;98665.05;;;9.54;70.49
39177;BME280;24904;52.208;21.192;2023-03-14T22:43:29;98663.88;;;9.56;70.47
39177;BME280;24904;52.208;21.192;2023-03-14T22:48:33;98663.30;;;9.58;70.76
39177;BME280;24904;52.208;21.192;2023-03-14T22:53:36;98665.42;;;9.56;70.88
39177;BME280;24904;52.208;21.192;2023-03-14T22:58:39;98673.92;;;9.60;70.93
39177;BME280;24904;52.208;21.192;2023-03-14T23:03:42;98682.11;;;9.62;70.76
39177;BME280;24904;52.208;21.192;2023-03-14T23:08:46;98682.18;;;9.62;71.05
39177;BME280;24904;52.208;21.192;2023-03-14T23:13:49;98685.05;;;9.65;70.97
39177;BME280;24904;52.208;21.192;2023-03-14T23:18:52;98683.91;;;9.68;71.11
39177;BME280;24904;52.208;21.192;2023-03-14T23:23:55;98689.98;;;9.69;71.20
39177;BME280;24904;52.208;21.192;2023-03-14T23:28:58;98710.02;;;9.70;71.20
39177;BME280;24904;52.208;21.192;2023-03-14T23:34:02;98718.33;;;9.72;71.24
39177;BME280;24904;52.208;21.192;2023-03-14T23:39:06;98724.34;;;9.73;71.52
39177;BME280;24904;52.208;21.192;2023-03-14T23:44:10;98725.02;;;9.76;71.63
39177;BME280;24904;52.208;21.192;2023-03-14T23:49:14;98732.69;;;9.81;71.69
39177;BME280;24904;52.208;21.192;2023-03-14T23:54:17;98730.52;;;9.86;71.55
39177;BME280;24904;52.208;21.192;2023-03-14T23:59:20;98736.45;;;9.89;71.75
